Time;durP1;ratioP1;P1;durP2;ratioP2;P2;SDS_P1;SDS_P2;PMS_P1;PMS_P2;Temp;Humidity;BMP_temperature;BMP_pressure;BME280_temperature;BME280_humidity;BME280_pressure;Samples;Min_cycle;Max_cycle;Signal;HPM_P1;HPM_P2
2022/06/29 00:00:29;;;;;;;6.20;1.37;;;;;;;;;;4998358;28;20205;-60
2022/06/29 00:02:57;;;;;;;3.13;1.07;;;;;;;;;;4998282;28;20216;-60
2022/06/29 00:05:26;;;;;;;2.53;1.17;;;;;;;;;;4998256;28;20268;-60
2022/06/29 00:07:55;;;;;;;4.33;1.10;;;;;;;;;;5001996;28;20254;-60
2022/06/29 00:10:24;;;;;;;1.43;0.93;;;;;;;;;;5007064;28;20235;-60
2022/06/29 00:12:52;;;;;;;1.83;1.10;;;;;;;;;;4998248;28;20225;-60
2022/06/29 00:15:20;;;;;;;2.30;1.20;;;;;;;;;;4997775;28;20241;-60
2022/06/29 00:17:48;;;;;;;2.43;1.03;;;;;;;;;;4998068;28;20242;-60
2022/06/29 00:20:17;;;;;;;1.90;1.20;;;;;;;;;;4997973;28;20217;-60
2022/06/29 00:22:45;;;;;;;1.10;1.00;;;;;;;;;;5003521;28;20237;-60
2022/06/29 00:25:13;;;;;;;3.80;1.20;;;;;;;;;;5015947;28;20596;-60
2022/06/29 00:27:43;;;;;;;1.07;1.00;;;;;;;;;;5001841;28;20619;-60
2022/06/29 00:30:12;;;;;;;1.00;0.80;;;;;;;;;;5002166;28;20253;-60
2022/06/29 00:32:40;;;;;;;1.43;0.70;;;;;;;;;;5002209;28;20219;-60
2022/06/29 00:35:09;;;;;;;2.67;1.00;;;;;;;;;;5027219;28;20234;-60
2022/06/29 00:37:37;;;;;;;1.20;1.10;;;;;;;;;;5001933;28;20217;-60
2022/06/29 00:40:06;;;;;;;2.47;0.90;;;;;;;;;;5001990;28;20206;-60
2022/06/29 00:42:33;;;;;;;2.40;1.00;;;;;;;;;;5002144;28;20208;-60
2022/06/29 00:45:03;;;;;;;2.50;1.20;;;;;;;;;;5002876;28;20743;-60
2022/06/29 00:47:31;;;;;;;2.00;0.93;;;;;;;;;;5001876;28;20210;-60
2022/06/29 00:49:59;;;;;;;2.50;1.20;;;;;;;;;;5012162;28;20289;-60
2022/06/29 00:52:28;;;;;;;1.27;1.13;;;;;;;;;;5029332;28;20198;-60
2022/06/29 00:54:58;;;;;;;3.10;0.87;;;;;;;;;;5027499;28;20221;-60
2022/06/29 00:57:27;;;;;;;0.60;0.60;;;;;;;;;;5028740;28;20279;-60
2022/06/29 00:59:55;;;;;;;1.20;0.70;;;;;;;;;;5024191;28;20683;-60
2022/06/29 01:02:25;;;;;;;5.57;0.97;;;;;;;;;;5020843;28;20197;-62
2022/06/29 01:04:53;;;;;;;1.20;0.97;;;;;;;;;;5004888;28;20280;-60
2022/06/29 01:07:23;;;;;;;0.77;0.70;;;;;;;;;;5020669;28;20725;-60
2022/06/29 01:09:51;;;;;;;1.47;0.93;;;;;;;;;;5013599;28;20195;-60
2022/06/29 01:12:20;;;;;;;2.33;0.90;;;;;;;;;;5027155;28;20307;-60
2022/06/29 01:14:49;;;;;;;3.60;0.90;;;;;;;;;;5022470;28;20650;-60
2022/06/29 01:17:17;;;;;;;4.17;1.20;;;;;;;;;;5025044;28;20219;-60
2022/06/29 01:19:47;;;;;;;1.13;1.00;;;;;;;;;;5028543;28;20244;-60
2022/06/29 01:22:17;;;;;;;1.43;0.93;;;;;;;;;;5027763;28;20279;-59
2022/06/29 01:24:46;;;;;;;2.87;1.20;;;;;;;;;;5030126;28;20219;-60
2022/06/29 01:27:14;;;;;;;1.10;1.00;;;;;;;;;;5026097;28;20240;-60
2022/06/29 01:29:42;;;;;;;1.73;1.00;;;;;;;;;;5025838;28;20200;-60
2022/06/29 01:32:10;;;;;;;1.07;0.90;;;;;;;;;;5029192;28;20256;-60
2022/06/29 01:34:39;;;;;;;1.53;1.20;;;;;;;;;;5025987;28;20224;-59
2022/06/29 01:37:07;;;;;;;1.77;0.90;;;;;;;;;;5026057;28;20226;-60
2022/06/29 01:39:37;;;;;;;1.33;1.00;;;;;;;;;;5025606;28;20235;-60
2022/06/29 01:42:05;;;;;;;1.17;0.80;;;;;;;;;;5029115;28;20667;-59
2022/06/29 01:44:33;;;;;;;3.27;1.20;;;;;;;;;;5028035;28;20723;-60
2022/06/29 01:47:01;;;;;;;3.20;1.13;;;;;;;;;;5027278;28;20210;-60
2022/06/29 01:49:29;;;;;;;1.50;0.80;;;;;;;;;;5026262;28;20238;-59
2022/06/29 01:51:57;;;;;;;1.57;0.83;;;;;;;;;;5022143;28;20221;-59
2022/06/29 01:54:25;;;;;;;0.93;0.60;;;;;;;;;;5006958;28;20225;-59
2022/06/29 01:56:55;;;;;;;1.53;0.80;;;;;;;;;;5006355;28;20246;-59
2022/06/29 01:59:23;;;;;;;1.60;0.80;;;;;;;;;;5020014;28;20211;-60
2022/06/29 02:01:51;;;;;;;1.23;0.80;;;;;;;;;;5020019;28;20245;-59
2022/06/29 02:04:19;;;;;;;1.83;0.87;;;;;;;;;;5019694;28;20227;-60
2022/06/29 02:06:47;;;;;;;1.87;1.20;;;;;;;;;;5019810;28;20208;-59
2022/06/29 02:09:15;;;;;;;2.57;0.80;;;;;;;;;;5018448;28;20204;-59
2022/06/29 02:11:43;;;;;;;3.83;0.80;;;;;;;;;;5000054;28;20260;-59
2022/06/29 02:14:13;;;;;;;2.20;0.80;;;;;;;;;;4999829;28;20230;-59
2022/06/29 02:16:41;;;;;;;2.03;1.17;;;;;;;;;;4999994;28;20236;-60
2022/06/29 02:19:09;;;;;;;1.13;0.83;;;;;;;;;;5000170;28;20268;-59
2022/06/29 02:21:37;;;;;;;3.50;0.93;;;;;;;;;;5000062;28;20205;-60
2022/06/29 02:24:05;;;;;;;1.43;0.90;;;;;;;;;;5011721;28;20236;-60
2022/06/29 02:26:33;;;;;;;1.63;1.00;;;;;;;;;;5001393;28;20260;-59
2022/06/29 02:29:01;;;;;;;1.83;1.03;;;;;;;;;;4999979;28;20232;-59
2022/06/29 02:37:01;;;;;;;0.77;0.70;;;;;;;;;;4999748;28;20233;-59
2022/06/29 02:39:30;;;;;;;2.13;0.87;;;;;;;;;;4999628;28;20240;-60
2022/06/29 02:41:58;;;;;;;4.70;0.97;;;;;;;;;;4999496;28;20256;-60
2022/06/29 02:44:26;;;;;;;1.40;0.97;;;;;;;;;;5006943;28;20258;-60
2022/06/29 02:46:55;;;;;;;2.63;1.30;;;;;;;;;;4999533;28;20215;-60
2022/06/29 02:49:23;;;;;;;2.67;0.83;;;;;;;;;;4999342;28;20236;-60
2022/06/29 02:51:51;;;;;;;2.87;1.10;;;;;;;;;;4999637;28;20268;-59
2022/06/29 02:54:19;;;;;;;1.80;0.80;;;;;;;;;;4998410;28;20259;-59
2022/06/29 02:56:47;;;;;;;2.33;1.10;;;;;;;;;;4997212;28;20213;-60
2022/06/29 02:59:15;;;;;;;1.20;1.10;;;;;;;;;;4997708;28;20218;-59
2022/06/29 03:01:43;;;;;;;2.13;0.70;;;;;;;;;;4998003;28;20207;-59
2022/06/29 03:04:13;;;;;;;2.10;0.90;;;;;;;;;;4997874;28;20224;-59
2022/06/29 03:06:41;;;;;;;3.30;0.90;;;;;;;;;;4997352;28;20749;-60
2022/06/29 03:09:09;;;;;;;2.33;1.20;;;;;;;;;;5011323;28;20235;-59
2022/06/29 03:11:37;;;;;;;1.00;1.00;;;;;;;;;;4998771;28;20260;-59
2022/06/29 03:14:05;;;;;;;2.67;0.87;;;;;;;;;;4998943;28;20719;-59
2022/06/29 03:16:33;;;;;;;4.80;1.27;;;;;;;;;;4998942;28;20581;-60
2022/06/29 03:19:01;;;;;;;2.43;1.40;;;;;;;;;;4998909;28;20270;-60
2022/06/29 03:21:30;;;;;;;1.13;0.90;;;;;;;;;;4998606;28;20696;-60
2022/06/29 03:23:58;;;;;;;2.43;0.77;;;;;;;;;;5015902;28;20270;-59
2022/06/29 03:26:26;;;;;;;1.47;0.80;;;;;;;;;;4998385;28;20811;-60
2022/06/29 03:28:55;;;;;;;2.30;0.97;;;;;;;;;;4998654;28;20211;-60
2022/06/29 03:31:23;;;;;;;2.57;0.80;;;;;;;;;;4999017;28;20233;-60
2022/06/29 03:33:51;;;;;;;2.23;0.80;;;;;;;;;;4998839;28;20655;-60
2022/06/29 03:36:19;;;;;;;2.10;1.30;;;;;;;;;;4998707;28;20208;-60
2022/06/29 03:38:49;;;;;;;0.80;0.73;;;;;;;;;;4998470;28;20228;-60
2022/06/29 03:41:17;;;;;;;3.03;0.90;;;;;;;;;;4998449;28;20575;-60
2022/06/29 03:43:45;;;;;;;1.60;0.90;;;;;;;;;;5000646;28;20661;-59
2022/06/29 03:46:13;;;;;;;3.87;1.00;;;;;;;;;;4998303;28;20211;-60
2022/06/29 03:48:41;;;;;;;0.90;0.77;;;;;;;;;;4998928;28;20214;-59
2022/06/29 03:51:08;;;;;;;1.23;0.90;;;;;;;;;;5017656;28;20677;-59
2022/06/29 03:53:37;;;;;;;2.00;1.00;;;;;;;;;;4999379;28;20235;-59
2022/06/29 03:56:06;;;;;;;1.63;0.97;;;;;;;;;;4998190;28;20246;-59
2022/06/29 03:58:34;;;;;;;2.13;0.90;;;;;;;;;;4998142;28;20244;-59
2022/06/29 04:01:09;;;;;;;1.70;0.93;;;;;;;;;;5026143;28;20217;-59
2022/06/29 04:03:37;;;;;;;5.17;1.40;;;;;;;;;;5022377;28;20231;-59
2022/06/29 04:06:06;;;;;;;1.10;0.97;;;;;;;;;;5023141;28;20204;-59
2022/06/29 04:08:36;;;;;;;2.03;1.03;;;;;;;;;;5027231;28;20208;-60
2022/06/29 04:11:48;;;;;;;3.50;1.27;;;;;;;;;;5018123;28;20235;-59
2022/06/29 04:13:55;;;;;;;0.97;0.70;;;;;;;;;;5021211;28;20645;-59
2022/06/29 04:16:23;;;;;;;1.63;1.20;;;;;;;;;;5023090;28;20774;-59
2022/06/29 04:18:51;;;;;;;4.00;1.33;;;;;;;;;;5025140;28;20204;-59
2022/06/29 04:21:19;;;;;;;2.73;0.93;;;;;;;;;;5023396;28;20204;-59
2022/06/29 04:23:49;;;;;;;1.83;0.90;;;;;;;;;;5023025;28;20247;-59
2022/06/29 04:26:19;;;;;;;2.27;1.10;;;;;;;;;;5020932;28;20636;-59
2022/06/29 04:28:47;;;;;;;3.03;0.90;;;;;;;;;;5026091;28;20231;-59
2022/06/29 04:31:16;;;;;;;3.53;0.80;;;;;;;;;;5025915;28;20233;-59
2022/06/29 04:33:44;;;;;;;1.63;1.00;;;;;;;;;;5020790;28;20688;-59
2022/06/29 04:36:12;;;;;;;1.83;1.00;;;;;;;;;;5022920;28;20206;-60
2022/06/29 04:38:40;;;;;;;1.73;0.83;;;;;;;;;;5026573;28;20258;-59
2022/06/29 04:41:08;;;;;;;2.33;1.10;;;;;;;;;;5025814;28;20199;-59
2022/06/29 04:43:38;;;;;;;3.33;1.10;;;;;;;;;;5025088;28;20253;-59
2022/06/29 04:46:21;;;;;;;4.10;1.07;;;;;;;;;;5021618;28;20242;-59
2022/06/29 04:48:51;;;;;;;1.40;0.97;;;;;;;;;;5020637;28;20213;-59
2022/06/29 04:51:20;;;;;;;2.63;0.90;;;;;;;;;;5026907;28;20206;-59
2022/06/29 04:53:49;;;;;;;3.57;3.23;;;;;;;;;;5026323;28;20241;-59
2022/06/29 04:56:17;;;;;;;2.53;1.67;;;;;;;;;;5022130;28;20235;-59
2022/06/29 04:58:46;;;;;;;1.50;0.90;;;;;;;;;;5022875;28;21061;-59
2022/06/29 05:01:16;;;;;;;3.53;1.17;;;;;;;;;;5022468;28;20200;-59
2022/06/29 05:03:45;;;;;;;6.27;1.47;;;;;;;;;;5019100;28;20750;-59
2022/06/29 05:06:13;;;;;;;2.83;1.00;;;;;;;;;;5025055;28;20224;-59
2022/06/29 05:08:41;;;;;;;3.10;1.07;;;;;;;;;;5026969;28;20740;-59
2022/06/29 05:11:10;;;;;;;3.03;1.20;;;;;;;;;;5023775;28;20589;-59
2022/06/29 05:13:38;;;;;;;2.47;1.10;;;;;;;;;;5025926;28;20729;-59
2022/06/29 05:16:07;;;;;;;1.97;1.00;;;;;;;;;;5026795;28;20199;-60
2022/06/29 05:18:37;;;;;;;2.73;0.90;;;;;;;;;;5028616;28;20202;-61
2022/06/29 05:21:06;;;;;;;2.57;1.07;;;;;;;;;;5002623;28;20219;-61
2022/06/29 05:23:34;;;;;;;3.23;1.20;;;;;;;;;;5016027;28;20290;-60
2022/06/29 05:26:02;;;;;;;1.00;0.90;;;;;;;;;;5001090;28;20217;-61
2022/06/29 05:28:30;;;;;;;1.17;0.97;;;;;;;;;;5001077;28;20621;-60
2022/06/29 05:30:58;;;;;;;4.10;1.17;;;;;;;;;;5000855;28;20285;-60
2022/06/29 05:33:36;;;;;;;1.80;0.90;;;;;;;;;;5000756;28;20230;-60
2022/06/29 05:36:04;;;;;;;1.77;1.00;;;;;;;;;;5000634;28;20304;-59
2022/06/29 05:38:32;;;;;;;4.87;1.10;;;;;;;;;;5012953;28;20549;-60
2022/06/29 05:41:01;;;;;;;4.60;1.20;;;;;;;;;;5000586;28;20657;-60
2022/06/29 05:43:29;;;;;;;6.57;1.33;;;;;;;;;;5001243;28;20227;-60
2022/06/29 05:45:57;;;;;;;1.20;0.77;;;;;;;;;;5000840;28;20240;-60
2022/06/29 05:48:27;;;;;;;1.70;0.93;;;;;;;;;;5000602;28;20217;-60
2022/06/29 05:50:55;;;;;;;1.27;0.93;;;;;;;;;;5000597;28;20210;-60
2022/06/29 05:53:23;;;;;;;3.77;1.17;;;;;;;;;;5000180;28;20492;-60
2022/06/29 05:55:51;;;;;;;4.07;1.10;;;;;;;;;;5000715;28;20242;-60
2022/06/29 05:58:20;;;;;;;4.00;1.33;;;;;;;;;;5000300;28;20269;-60
2022/06/29 06:00:48;;;;;;;1.93;1.03;;;;;;;;;;5000779;28;20213;-60
2022/06/29 06:03:17;;;;;;;4.83;1.00;;;;;;;;;;5000425;28;20222;-60
2022/06/29 06:05:47;;;;;;;4.57;1.10;;;;;;;;;;4999969;28;20736;-61
2022/06/29 06:08:15;;;;;;;3.43;1.47;;;;;;;;;;5007085;28;20209;-61
2022/06/29 06:10:43;;;;;;;5.67;1.40;;;;;;;;;;5006015;28;20208;-60
2022/06/29 06:13:11;;;;;;;2.47;1.00;;;;;;;;;;5000067;28;20274;-60
2022/06/29 06:15:39;;;;;;;2.43;0.90;;;;;;;;;;4999963;28;20774;-60
2022/06/29 06:18:07;;;;;;;3.27;1.43;;;;;;;;;;5000211;28;20237;-60
2022/06/29 06:20:35;;;;;;;4.30;1.40;;;;;;;;;;4999250;28;20217;-61
2022/06/29 06:23:05;;;;;;;3.53;1.40;;;;;;;;;;5006692;28;20266;-62
2022/06/29 06:25:33;;;;;;;1.93;1.00;;;;;;;;;;5008420;28;20243;-61
2022/06/29 06:28:01;;;;;;;1.63;1.20;;;;;;;;;;4998939;28;20243;-61
2022/06/29 06:30:29;;;;;;;2.00;1.27;;;;;;;;;;4998238;28;20210;-60
2022/06/29 06:32:57;;;;;;;3.43;1.00;;;;;;;;;;4999591;28;20238;-60
2022/06/29 06:35:25;;;;;;;2.37;1.07;;;;;;;;;;5008794;28;20261;-60
2022/06/29 06:37:53;;;;;;;3.47;1.00;;;;;;;;;;4999146;28;20242;-61
2022/06/29 06:43:08;;;;;;;1.63;1.30;;;;;;;;;;5007024;28;20282;-60
2022/06/29 06:45:36;;;;;;;1.57;1.00;;;;;;;;;;5004813;28;20231;-60
2022/06/29 06:48:04;;;;;;;3.70;1.30;;;;;;;;;;4999589;28;20216;-59
2022/06/29 06:50:32;;;;;;;2.90;1.10;;;;;;;;;;4998998;28;20246;-60
2022/06/29 06:53:01;;;;;;;1.80;1.00;;;;;;;;;;4999087;28;20239;-61
2022/06/29 06:55:31;;;;;;;1.80;1.10;;;;;;;;;;4999079;28;20292;-61
2022/06/29 06:57:59;;;;;;;1.53;0.90;;;;;;;;;;4998854;28;20236;-60
2022/06/29 07:00:27;;;;;;;2.70;0.83;;;;;;;;;;4997339;28;20629;-61
2022/06/29 07:02:55;;;;;;;3.27;1.27;;;;;;;;;;4997214;28;20649;-60
2022/06/29 07:05:25;;;;;;;1.13;0.90;;;;;;;;;;4997275;28;20208;-58
2022/06/29 07:07:53;;;;;;;1.23;1.10;;;;;;;;;;5000835;28;20204;-58
2022/06/29 07:10:21;;;;;;;3.27;1.00;;;;;;;;;;5006293;28;20236;-58
2022/06/29 07:12:50;;;;;;;4.93;1.47;;;;;;;;;;4997618;28;20232;-58
2022/06/29 07:15:23;;;;;;;1.73;1.13;;;;;;;;;;4998817;28;20228;-58
2022/06/29 07:17:51;;;;;;;3.60;0.90;;;;;;;;;;4998758;28;20260;-58
2022/06/29 07:20:19;;;;;;;2.13;1.20;;;;;;;;;;4998492;28;20209;-59
2022/06/29 07:22:47;;;;;;;2.57;0.90;;;;;;;;;;5001278;28;20240;-59
2022/06/29 07:25:15;;;;;;;3.27;1.33;;;;;;;;;;5011999;28;20259;-59
2022/06/29 07:27:43;;;;;;;1.97;1.10;;;;;;;;;;5005495;28;20239;-59
2022/06/29 07:30:13;;;;;;;1.77;1.03;;;;;;;;;;5017892;28;20667;-59
2022/06/29 07:32:41;;;;;;;3.33;1.33;;;;;;;;;;5018217;28;20267;-59
2022/06/29 07:35:09;;;;;;;1.53;1.03;;;;;;;;;;5028984;28;20220;-59
2022/06/29 07:37:38;;;;;;;4.03;1.20;;;;;;;;;;4998878;28;20240;-59
2022/06/29 07:40:06;;;;;;;1.83;1.10;;;;;;;;;;4998518;28;20238;-59
2022/06/29 07:42:41;;;;;;;3.97;1.37;;;;;;;;;;4998530;28;20215;-59
2022/06/29 07:45:10;;;;;;;5.37;1.60;;;;;;;;;;4998932;28;20228;-59
2022/06/29 07:47:40;;;;;;;4.27;1.40;;;;;;;;;;4998461;28;20271;-59
2022/06/29 07:50:10;;;;;;;1.63;1.33;;;;;;;;;;4998335;28;20209;-59
2022/06/29 07:52:38;;;;;;;4.97;1.20;;;;;;;;;;4998535;28;20241;-59
2022/06/29 07:55:07;;;;;;;3.60;1.77;;;;;;;;;;4998391;28;20313;-59
2022/06/29 07:57:35;;;;;;;1.90;1.40;;;;;;;;;;4998071;28;20245;-59
2022/06/29 08:00:03;;;;;;;2.13;1.20;;;;;;;;;;4998265;28;20238;-59
2022/06/29 08:02:31;;;;;;;4.67;1.67;;;;;;;;;;5008349;28;20268;-59
2022/06/29 08:05:01;;;;;;;2.60;1.10;;;;;;;;;;4996988;28;20230;-59
2022/06/29 08:07:33;;;;;;;4.33;1.20;;;;;;;;;;5022019;28;20212;-60
2022/06/29 08:10:01;;;;;;;2.60;1.40;;;;;;;;;;5016213;28;20208;-59
2022/06/29 08:12:29;;;;;;;2.33;1.50;;;;;;;;;;4998363;28;20212;-59
2022/06/29 08:14:57;;;;;;;4.43;1.30;;;;;;;;;;4997884;28;20237;-59
2022/06/29 08:17:25;;;;;;;6.77;1.20;;;;;;;;;;4998483;28;20244;-58
2022/06/29 08:20:01;;;;;;;2.20;0.97;;;;;;;;;;4997889;28;20292;-58
2022/06/29 08:22:30;;;;;;;2.00;1.27;;;;;;;;;;4997984;28;20267;-61
2022/06/29 08:24:57;;;;;;;2.47;1.00;;;;;;;;;;5000114;28;20236;-61
2022/06/29 08:27:25;;;;;;;1.63;1.10;;;;;;;;;;4998071;28;20252;-61
2022/06/29 08:30:13;;;;;;;2.33;1.17;;;;;;;;;;5005608;28;20210;-61
2022/06/29 08:32:42;;;;;;;1.77;1.17;;;;;;;;;;5015609;28;20214;-58
2022/06/29 08:35:12;;;;;;;4.73;1.87;;;;;;;;;;5012729;28;20567;-58
2022/06/29 08:37:40;;;;;;;1.70;1.00;;;;;;;;;;4995422;28;20236;-58
2022/06/29 08:40:09;;;;;;;3.20;1.00;;;;;;;;;;4995816;28;20206;-58
2022/06/29 08:42:37;;;;;;;1.87;1.20;;;;;;;;;;4997812;28;20218;-60
2022/06/29 08:45:06;;;;;;;3.43;1.40;;;;;;;;;;5017360;28;20203;-59
2022/06/29 08:47:35;;;;;;;2.93;1.10;;;;;;;;;;5020731;28;20201;-60
2022/06/29 08:50:04;;;;;;;1.80;1.07;;;;;;;;;;5021327;28;20211;-60
2022/06/29 08:52:35;;;;;;;1.53;1.00;;;;;;;;;;5021300;28;20209;-60
2022/06/29 08:55:03;;;;;;;3.27;1.20;;;;;;;;;;5021266;28;20229;-60
2022/06/29 08:57:31;;;;;;;2.00;1.17;;;;;;;;;;5021051;28;20275;-60
2022/06/29 08:59:59;;;;;;;1.27;1.10;;;;;;;;;;5020801;28;20215;-60
2022/06/29 09:02:29;;;;;;;3.80;1.10;;;;;;;;;;5021287;28;20207;-61
2022/06/29 09:04:58;;;;;;;3.07;1.57;;;;;;;;;;5006705;28;20257;-61
2022/06/29 09:07:26;;;;;;;1.93;1.30;;;;;;;;;;5001596;28;20236;-61
2022/06/29 09:10:00;;;;;;;2.40;1.27;;;;;;;;;;5001443;28;20239;-62
2022/06/29 09:12:29;;;;;;;3.00;1.40;;;;;;;;;;5001278;28;20243;-61
2022/06/29 09:14:58;;;;;;;3.40;1.40;;;;;;;;;;5000773;28;20770;-61
2022/06/29 09:17:26;;;;;;;5.10;1.10;;;;;;;;;;5001153;28;20255;-61
2022/06/29 09:19:54;;;;;;;3.73;1.30;;;;;;;;;;5008955;28;20233;-61
2022/06/29 09:22:42;;;;;;;3.60;1.30;;;;;;;;;;5007588;28;20684;-61
2022/06/29 09:25:22;;;;;;;1.10;1.10;;;;;;;;;;5019969;28;20201;-61
2022/06/29 09:27:54;;;;;;;2.03;1.07;;;;;;;;;;5000923;28;20249;-61
2022/06/29 09:30:25;;;;;;;2.07;1.17;;;;;;;;;;5001014;28;20208;-61
2022/06/29 09:32:59;;;;;;;3.13;1.00;;;;;;;;;;5000846;28;20576;-60
2022/06/29 09:35:27;;;;;;;1.93;1.20;;;;;;;;;;5014298;28;20224;-61
2022/06/29 09:37:55;;;;;;;3.83;1.53;;;;;;;;;;5014400;28;20280;-60
2022/06/29 09:40:24;;;;;;;2.87;1.13;;;;;;;;;;5000700;28;20211;-61
2022/06/29 09:42:52;;;;;;;1.90;1.23;;;;;;;;;;5000528;28;20680;-61
2022/06/29 09:45:21;;;;;;;1.67;1.47;;;;;;;;;;5019330;28;20699;-61
2022/06/29 09:47:49;;;;;;;1.13;1.03;;;;;;;;;;5013116;28;20259;-62
2022/06/29 09:50:17;;;;;;;4.00;1.53;;;;;;;;;;5004270;28;20207;-61
2022/06/29 09:52:48;;;;;;;1.50;1.40;;;;;;;;;;5017686;28;20238;-61
2022/06/29 09:55:16;;;;;;;1.50;1.40;;;;;;;;;;5017635;28;20259;-61
2022/06/29 09:57:46;;;;;;;0.90;0.90;;;;;;;;;;5025436;28;20266;-60
2022/06/29 10:03:00;;;;;;;3.63;1.30;;;;;;;;;;5018326;28;20234;-61
2022/06/29 10:05:54;;;;;;;1.87;1.77;;;;;;;;;;5002595;28;20645;-61
2022/06/29 10:08:17;;;;;;;4.37;1.20;;;;;;;;;;5008336;28;20202;-60
2022/06/29 10:10:45;;;;;;;2.47;1.47;;;;;;;;;;5013249;28;20335;-61
2022/06/29 10:16:17;;;;;;;3.13;1.10;;;;;;;;;;5003891;28;20257;-60
2022/06/29 10:18:57;;;;;;;2.20;1.30;;;;;;;;;;5012770;28;20285;-60
2022/06/29 10:21:27;;;;;;;1.77;1.20;;;;;;;;;;5017215;28;20206;-61
2022/06/29 10:23:56;;;;;;;2.67;1.40;;;;;;;;;;5021679;28;20249;-60
2022/06/29 10:26:40;;;;;;;1.53;1.40;;;;;;;;;;5004505;28;20211;-61
2022/06/29 10:29:27;;;;;;;4.20;1.50;;;;;;;;;;5019324;28;20201;-60
2022/06/29 10:32:12;;;;;;;4.30;1.63;;;;;;;;;;5019575;28;20245;-59
2022/06/29 10:37:27;;;;;;;2.00;1.30;;;;;;;;;;4999698;28;20228;-60
2022/06/29 10:39:55;;;;;;;2.37;1.30;;;;;;;;;;4999779;28;20236;-61
2022/06/29 10:45:19;;;;;;;6.67;4.23;;;;;;;;;;5018636;28;20214;-60
2022/06/29 10:48:12;;;;;;;2.63;1.40;;;;;;;;;;5019378;28;20212;-60
2022/06/29 10:50:41;;;;;;;1.23;1.03;;;;;;;;;;5014271;28;20214;-60
2022/06/29 10:53:10;;;;;;;2.70;1.50;;;;;;;;;;5007201;28;20708;-60
2022/06/29 10:55:39;;;;;;;3.47;1.40;;;;;;;;;;5002510;28;20233;-59
2022/06/29 10:58:07;;;;;;;3.13;1.57;;;;;;;;;;4999044;28;20673;-59
2022/06/29 11:00:38;;;;;;;1.93;1.10;;;;;;;;;;5010673;28;20233;-59
2022/06/29 11:03:10;;;;;;;2.57;0.97;;;;;;;;;;5003678;28;20224;-59
2022/06/29 11:12:01;;;;;;;1.60;1.10;;;;;;;;;;4999758;28;20206;-59
2022/06/29 11:13:59;;;;;;;2.50;1.27;;;;;;;;;;4998706;28;20260;-60
2022/06/29 11:16:32;;;;;;;1.63;1.17;;;;;;;;;;5010722;28;20287;-61
2022/06/29 11:19:01;;;;;;;3.23;1.43;;;;;;;;;;5017148;28;20208;-61
2022/06/29 11:21:29;;;;;;;1.40;1.30;;;;;;;;;;5012793;28;20261;-61
2022/06/29 11:23:58;;;;;;;1.20;1.10;;;;;;;;;;5015140;28;20222;-60
2022/06/29 11:26:27;;;;;;;1.53;1.20;;;;;;;;;;5014768;28;20199;-61
2022/06/29 11:28:57;;;;;;;2.60;1.07;;;;;;;;;;5012573;28;20200;-61
2022/06/29 11:31:25;;;;;;;1.30;1.13;;;;;;;;;;5014654;28;20560;-61
2022/06/29 11:33:54;;;;;;;1.27;1.17;;;;;;;;;;5013606;28;20780;-61
2022/06/29 11:36:25;;;;;;;2.70;2.50;;;;;;;;;;5009572;28;20218;-60
2022/06/29 11:38:54;;;;;;;1.67;1.10;;;;;;;;;;5010033;28;20211;-60
2022/06/29 11:41:25;;;;;;;5.40;1.10;;;;;;;;;;5012269;28;20231;-60
2022/06/29 11:43:59;;;;;;;1.67;1.30;;;;;;;;;;5011643;28;20225;-61
2022/06/29 11:46:27;;;;;;;1.83;1.00;;;;;;;;;;5012549;28;20232;-60
2022/06/29 11:51:56;;;;;;;4.80;1.10;;;;;;;;;;5015347;28;20271;-60
2022/06/29 11:54:37;;;;;;;3.13;1.13;;;;;;;;;;5013113;28;20224;-60
2022/06/29 11:57:07;;;;;;;1.10;1.10;;;;;;;;;;5009618;28;20251;-60
2022/06/29 11:59:35;;;;;;;1.60;1.00;;;;;;;;;;5012028;28;20231;-60
2022/06/29 12:02:03;;;;;;;2.03;1.00;;;;;;;;;;5017958;28;20204;-61
2022/06/29 12:04:32;;;;;;;1.63;1.10;;;;;;;;;;5006818;28;20658;-61
2022/06/29 12:07:05;;;;;;;2.23;1.33;;;;;;;;;;4998342;28;20238;-61
2022/06/29 12:09:34;;;;;;;1.77;1.30;;;;;;;;;;5008811;28;20255;-60
2022/06/29 12:12:02;;;;;;;2.90;1.50;;;;;;;;;;5007850;28;20201;-60
2022/06/29 12:14:30;;;;;;;1.73;1.13;;;;;;;;;;5000729;28;20251;-60
2022/06/29 12:16:58;;;;;;;1.23;1.10;;;;;;;;;;4996009;28;20224;-61
2022/06/29 12:19:26;;;;;;;0.90;0.90;;;;;;;;;;5004851;28;20237;-62
2022/06/29 12:21:54;;;;;;;3.13;1.33;;;;;;;;;;5009642;28;20238;-62
2022/06/29 12:24:23;;;;;;;1.30;1.13;;;;;;;;;;5011827;28;20222;-62
2022/06/29 12:26:51;;;;;;;1.10;1.10;;;;;;;;;;5008384;28;20673;-61
2022/06/29 12:29:19;;;;;;;2.43;1.33;;;;;;;;;;5007445;28;20206;-61
2022/06/29 12:31:47;;;;;;;1.57;1.07;;;;;;;;;;5007913;28;20203;-61
2022/06/29 12:34:16;;;;;;;2.03;1.03;;;;;;;;;;5013260;28;20239;-61
2022/06/29 12:36:57;;;;;;;1.20;1.10;;;;;;;;;;5012575;28;20304;-61
2022/06/29 12:39:26;;;;;;;1.70;0.93;;;;;;;;;;5003320;28;20698;-61
2022/06/29 12:41:54;;;;;;;2.67;1.20;;;;;;;;;;5006722;28;20202;-61
2022/06/29 12:44:22;;;;;;;2.07;1.30;;;;;;;;;;5008171;28;20250;-61
2022/06/29 12:46:52;;;;;;;4.00;1.40;;;;;;;;;;5009764;28;20720;-61
2022/06/29 12:49:20;;;;;;;2.87;1.27;;;;;;;;;;5003630;28;20637;-61
2022/06/29 12:51:48;;;;;;;3.87;1.40;;;;;;;;;;4995781;28;20262;-60
2022/06/29 12:54:17;;;;;;;1.27;1.10;;;;;;;;;;5017345;28;20223;-61
2022/06/29 12:56:47;;;;;;;1.57;1.43;;;;;;;;;;5017010;28;20229;-61
2022/06/29 12:59:16;;;;;;;2.23;1.30;;;;;;;;;;5008238;28;20656;-61
2022/06/29 13:01:44;;;;;;;3.53;0.97;;;;;;;;;;5007588;28;20214;-61
2022/06/29 13:04:13;;;;;;;1.47;1.10;;;;;;;;;;5008665;28;20227;-61
2022/06/29 13:06:41;;;;;;;1.40;1.30;;;;;;;;;;4997450;28;20213;-61
2022/06/29 13:09:09;;;;;;;1.37;1.23;;;;;;;;;;4997729;28;20209;-61
2022/06/29 13:11:38;;;;;;;2.80;1.30;;;;;;;;;;5020846;28;20211;-61
2022/06/29 13:14:07;;;;;;;0.90;0.90;;;;;;;;;;5007955;28;20227;-61
2022/06/29 13:16:35;;;;;;;1.80;1.20;;;;;;;;;;5010320;28;20206;-61
2022/06/29 13:19:03;;;;;;;1.90;1.17;;;;;;;;;;5007485;28;20214;-61
2022/06/29 13:21:33;;;;;;;3.10;1.50;;;;;;;;;;5009958;28;20207;-61
2022/06/29 13:24:02;;;;;;;1.27;1.17;;;;;;;;;;5009890;28;20245;-60
2022/06/29 13:26:30;;;;;;;3.13;1.20;;;;;;;;;;5004479;28;20260;-61
2022/06/29 13:28:58;;;;;;;3.53;1.30;;;;;;;;;;5017443;28;20578;-61
2022/06/29 13:31:28;;;;;;;1.63;1.00;;;;;;;;;;5012066;28;20222;-61
2022/06/29 13:33:56;;;;;;;3.10;1.20;;;;;;;;;;5016323;28;20277;-61
2022/06/29 13:36:24;;;;;;;1.37;1.20;;;;;;;;;;5006767;28;20252;-61
2022/06/29 13:38:53;;;;;;;3.67;1.07;;;;;;;;;;5000864;28;20236;-61
2022/06/29 13:41:21;;;;;;;1.27;0.93;;;;;;;;;;5007400;28;20239;-61
2022/06/29 13:43:49;;;;;;;1.33;1.13;;;;;;;;;;5020202;28;20260;-61
2022/06/29 13:46:17;;;;;;;1.83;0.90;;;;;;;;;;5019999;28;20618;-61
2022/06/29 13:48:47;;;;;;;2.37;0.90;;;;;;;;;;5006777;28;20283;-61
2022/06/29 13:51:15;;;;;;;2.00;0.93;;;;;;;;;;5000318;28;20235;-61
2022/06/29 13:53:43;;;;;;;2.00;1.07;;;;;;;;;;5013363;28;20247;-61
2022/06/29 13:56:11;;;;;;;3.07;1.00;;;;;;;;;;5011375;28;20244;-60
2022/06/29 13:58:39;;;;;;;1.20;1.10;;;;;;;;;;5000274;28;20273;-63
2022/06/29 14:01:08;;;;;;;3.43;1.00;;;;;;;;;;5006712;28;20211;-63
2022/06/29 14:03:37;;;;;;;2.07;1.20;;;;;;;;;;5016527;28;20324;-62
2022/06/29 14:06:06;;;;;;;7.87;1.50;;;;;;;;;;5000325;28;20218;-62
2022/06/29 14:08:34;;;;;;;1.27;1.07;;;;;;;;;;5000331;28;20212;-62
2022/06/29 14:11:22;;;;;;;1.88;1.20;;;;;;;;;;5000216;28;20302;-62
2022/06/29 14:13:51;;;;;;;1.70;1.23;;;;;;;;;;5001477;28;20239;-62
2022/06/29 14:16:19;;;;;;;2.60;1.30;;;;;;;;;;5010980;28;20236;-61
2022/06/29 14:18:47;;;;;;;4.20;1.30;;;;;;;;;;5010799;28;20644;-61
2022/06/29 14:21:16;;;;;;;1.57;1.10;;;;;;;;;;5014183;28;20209;-61
2022/06/29 14:23:44;;;;;;;1.37;1.00;;;;;;;;;;5020483;28;20721;-62
2022/06/29 14:26:13;;;;;;;2.57;1.40;;;;;;;;;;5010969;28;20218;-62
2022/06/29 14:28:41;;;;;;;2.07;1.17;;;;;;;;;;5011313;28;20192;-63
2022/06/29 14:31:10;;;;;;;4.43;1.10;;;;;;;;;;5015783;28;20208;-62
2022/06/29 14:33:38;;;;;;;2.47;1.37;;;;;;;;;;5002547;28;20236;-62
2022/06/29 14:36:06;;;;;;;6.97;1.33;;;;;;;;;;4999447;28;20215;-63
2022/06/29 14:38:35;;;;;;;2.45;1.33;;;;;;;;;;4999502;28;20258;-63
2022/06/29 14:41:03;;;;;;;5.00;2.30;;;;;;;;;;5003921;28;20201;-63
2022/06/29 14:43:32;;;;;;;2.65;1.50;;;;;;;;;;5019358;28;20255;-64
2022/06/29 14:46:00;;;;;;;1.75;1.40;;;;;;;;;;5019184;28;20629;-63
2022/06/29 14:48:28;;;;;;;5.97;1.40;;;;;;;;;;5019265;28;20205;-63
2022/06/29 14:50:56;;;;;;;1.30;1.20;;;;;;;;;;5018927;28;20297;-63
2022/06/29 14:53:24;;;;;;;3.10;1.50;;;;;;;;;;5019418;28;20228;-63
2022/06/29 14:55:53;;;;;;;3.73;1.60;;;;;;;;;;5019047;28;20248;-62
2022/06/29 14:58:21;;;;;;;1.83;1.20;;;;;;;;;;5018524;28;20247;-62
2022/06/29 15:00:49;;;;;;;4.73;1.53;;;;;;;;;;5019003;28;20213;-62
2022/06/29 15:03:17;;;;;;;1.37;1.27;;;;;;;;;;5017877;28;20248;-62
2022/06/29 15:05:46;;;;;;;1.73;1.07;;;;;;;;;;5002453;28;20205;-62
2022/06/29 15:08:14;;;;;;;2.33;1.17;;;;;;;;;;4998921;28;20582;-63
2022/06/29 15:10:41;;;;;;;1.53;1.10;;;;;;;;;;4999139;28;20209;-62
2022/06/29 15:13:31;;;;;;;2.87;1.30;;;;;;;;;;4999188;28;20225;-61
2022/06/29 15:15:59;;;;;;;2.53;1.10;;;;;;;;;;4998852;28;20686;-62
2022/06/29 15:18:27;;;;;;;4.20;1.30;;;;;;;;;;4998882;28;20247;-62
2022/06/29 15:20:55;;;;;;;2.57;1.30;;;;;;;;;;4998534;28;20247;-62
2022/06/29 15:23:23;;;;;;;5.97;1.50;;;;;;;;;;5010809;28;20694;-62